Terminal Aerodrome Forecast
Issued by NWS Cleveland, OH

Home | Current Version | Previous Version | Graphics & Text | Print | Product List | Glossary On
Versions: 1 2 3 4 5 6 7 8 9 10 11 12 13 14 15 16 17 18 19 20 21 22
275
FTUS41 KCLE 200527
TAFTOL
TAF
KTOL 200527Z 2006/2106 19010KT 6SM -SHRA SCT060 BKN110
     FM201500 21015G25KT P6SM VCSH BKN040 OVC120
     FM210300 23014G22KT 6SM -SHRA OVC035
     FM210400 23013G24KT 5SM SHRA OVC035=

USA.gov is the U.S. government's official web portal to all federal, state and local government web resources and services.